sensor_id;sensor_type;location;lat;lon;timestamp;pressure;altitude;pressure_sealevel;temperature;humidity
45621;BME280;31345;51.522;10.702;2024-03-25T00:02:27;97733.13;;;5.31;100.00
45621;BME280;31345;51.522;10.702;2024-03-25T00:04:58;97731.69;;;5.40;100.00
45621;BME280;31345;51.522;10.702;2024-03-25T00:07:31;97733.56;;;5.51;100.00
45621;BME280;31345;51.522;10.702;2024-03-25T00:10:03;97735.00;;;5.55;100.00
45621;BME280;31345;51.522;10.702;2024-03-25T00:12:38;97731.47;;;5.56;100.00
45621;BME280;31345;51.522;10.702;2024-03-25T00:15:10;97733.56;;;5.64;100.00
45621;BME280;31345;51.522;10.702;2024-03-25T00:17:42;97730.34;;;5.60;100.00
45621;BME280;31345;51.522;10.702;2024-03-25T00:20:14;97728.59;;;5.61;100.00
45621;BME280;31345;51.522;10.702;2024-03-25T00:22:47;97737.63;;;5.68;100.00
45621;BME280;31345;51.522;10.702;2024-03-25T00:25:14;97744.88;;;5.63;100.00
45621;BME280;31345;51.522;10.702;2024-03-25T00:27:44;97744.56;;;5.68;100.00
45621;BME280;31345;51.522;10.702;2024-03-25T00:30:11;97740.31;;;5.80;100.00
45621;BME280;31345;51.522;10.702;2024-03-25T00:32:45;97750.16;;;5.74;100.00
45621;BME280;31345;51.522;10.702;2024-03-25T00:35:16;97747.03;;;5.69;100.00
45621;BME280;31345;51.522;10.702;2024-03-25T00:37:49;97740.63;;;5.75;100.00
45621;BME280;31345;51.522;10.702;2024-03-25T00:40:20;97748.41;;;5.75;100.00
45621;BME280;31345;51.522;10.702;2024-03-25T00:42:54;97745.16;;;5.84;100.00
45621;BME280;31345;51.522;10.702;2024-03-25T00:45:26;97759.72;;;5.74;100.00
45621;BME280;31345;51.522;10.702;2024-03-25T00:47:56;97753.38;;;5.65;100.00
45621;BME280;31345;51.522;10.702;2024-03-25T00:50:23;97758.34;;;5.68;100.00
45621;BME280;31345;51.522;10.702;2024-03-25T00:52:56;97761.16;;;5.65;100.00
45621;BME280;31345;51.522;10.702;2024-03-25T00:55:27;97754.91;;;5.68;100.00
45621;BME280;31345;51.522;10.702;2024-03-25T00:58:02;97762.09;;;5.77;100.00
45621;BME280;31345;51.522;10.702;2024-03-25T01:00:29;97750.66;;;5.54;100.00
45621;BME280;31345;51.522;10.702;2024-03-25T01:02:57;97771.22;;;5.57;100.00
45621;BME280;31345;51.522;10.702;2024-03-25T01:05:28;97758.34;;;5.68;100.00
45621;BME280;31345;51.522;10.702;2024-03-25T01:07:56;97766.13;;;5.68;100.00
45621;BME280;31345;51.522;10.702;2024-03-25T01:10:27;97770.72;;;5.65;100.00
45621;BME280;31345;51.522;10.702;2024-03-25T01:12:55;97770.50;;;5.55;100.00
45621;BME280;31345;51.522;10.702;2024-03-25T01:15:24;97775.69;;;5.55;100.00
45621;BME280;31345;51.522;10.702;2024-03-25T01:17:57;97774.94;;;5.53;100.00
45621;BME280;31345;51.522;10.702;2024-03-25T01:20:29;97779.41;;;5.63;100.00
45621;BME280;31345;51.522;10.702;2024-03-25T01:23:01;97785.22;;;5.54;100.00
45621;BME280;31345;51.522;10.702;2024-03-25T01:25:28;97779.72;;;5.59;100.00
45621;BME280;31345;51.522;10.702;2024-03-25T01:28:00;97774.00;;;5.54;100.00
45621;BME280;31345;51.522;10.702;2024-03-25T01:30:29;97776.91;;;5.49;100.00
45621;BME280;31345;51.522;10.702;2024-03-25T01:32:56;97782.50;;;5.56;100.00
45621;BME280;31345;51.522;10.702;2024-03-25T01:35:28;97786.97;;;5.54;100.00
45621;BME280;31345;51.522;10.702;2024-03-25T01:37:55;97786.47;;;5.61;100.00
45621;BME280;31345;51.522;10.702;2024-03-25T01:40:27;97792.25;;;5.52;100.00
45621;BME280;31345;51.522;10.702;2024-03-25T01:42:55;97795.06;;;5.62;100.00
45621;BME280;31345;51.522;10.702;2024-03-25T01:45:22;97795.50;;;5.69;100.00
45621;BME280;31345;51.522;10.702;2024-03-25T01:47:56;97798.91;;;5.69;100.00
45621;BME280;31345;51.522;10.702;2024-03-25T01:50:24;97794.34;;;5.86;100.00
45621;BME280;31345;51.522;10.702;2024-03-25T01:52:58;97790.94;;;5.85;100.00
45621;BME280;31345;51.522;10.702;2024-03-25T01:55:27;97792.28;;;5.78;100.00
45621;BME280;31345;51.522;10.702;2024-03-25T01:58:01;97799.91;;;5.54;100.00
45621;BME280;31345;51.522;10.702;2024-03-25T02:00:28;97798.59;;;5.61;100.00
45621;BME280;31345;51.522;10.702;2024-03-25T02:03:02;97799.66;;;5.71;100.00
45621;BME280;31345;51.522;10.702;2024-03-25T02:05:28;97801.50;;;5.69;100.00
45621;BME280;31345;51.522;10.702;2024-03-25T02:08:03;97795.91;;;5.62;100.00
45621;BME280;31345;51.522;10.702;2024-03-25T02:10:29;97794.03;;;5.65;100.00
45621;BME280;31345;51.522;10.702;2024-03-25T02:13:02;97802.03;;;5.61;100.00
45621;BME280;31345;51.522;10.702;2024-03-25T02:15:35;97800.69;;;5.69;100.00
45621;BME280;31345;51.522;10.702;2024-03-25T02:18:09;97802.22;;;5.58;100.00
45621;BME280;31345;51.522;10.702;2024-03-25T02:20:40;97809.44;;;5.40;100.00
45621;BME280;31345;51.522;10.702;2024-03-25T02:23:13;97806.34;;;5.48;100.00
45621;BME280;31345;51.522;10.702;2024-03-25T02:25:49;97805.31;;;5.63;100.00
45621;BME280;31345;51.522;10.702;2024-03-25T02:28:22;97809.88;;;5.47;100.00
45621;BME280;31345;51.522;10.702;2024-03-25T02:30:53;97801.47;;;5.43;100.00
45621;BME280;31345;51.522;10.702;2024-03-25T02:33:21;97808.00;;;5.36;100.00
45621;BME280;31345;51.522;10.702;2024-03-25T02:35:47;97810.78;;;5.33;100.00
45621;BME280;31345;51.522;10.702;2024-03-25T02:38:15;97807.16;;;5.35;100.00
45621;BME280;31345;51.522;10.702;2024-03-25T02:40:44;97808.38;;;5.30;100.00
45621;BME280;31345;51.522;10.702;2024-03-25T02:43:19;97805.25;;;5.24;100.00
45621;BME280;31345;51.522;10.702;2024-03-25T02:45:52;97803.75;;;5.07;100.00
45621;BME280;31345;51.522;10.702;2024-03-25T02:48:25;97813.78;;;5.27;100.00
45621;BME280;31345;51.522;10.702;2024-03-25T02:50:51;97809.38;;;5.14;100.00
45621;BME280;31345;51.522;10.702;2024-03-25T02:53:24;97814.88;;;5.22;100.00
45621;BME280;31345;51.522;10.702;2024-03-25T02:55:55;97816.66;;;5.22;100.00
45621;BME280;31345;51.522;10.702;2024-03-25T02:58:29;97820.28;;;5.32;100.00
45621;BME280;31345;51.522;10.702;2024-03-25T03:00:56;97829.44;;;5.25;100.00
45621;BME280;31345;51.522;10.702;2024-03-25T03:03:28;97823.22;;;5.28;100.00
45621;BME280;31345;51.522;10.702;2024-03-25T03:05:55;97829.09;;;5.17;100.00
45621;BME280;31345;51.522;10.702;2024-03-25T03:08:22;97835.66;;;5.35;100.00
45621;BME280;31345;51.522;10.702;2024-03-25T03:10:49;97838.47;;;5.45;100.00
45621;BME280;31345;51.522;10.702;2024-03-25T03:13:21;97840.13;;;5.33;100.00
45621;BME280;31345;51.522;10.702;2024-03-25T03:15:49;97841.69;;;5.36;100.00
45621;BME280;31345;51.522;10.702;2024-03-25T03:18:17;97841.16;;;5.31;100.00
45621;BME280;31345;51.522;10.702;2024-03-25T03:20:48;97853.59;;;5.39;100.00
45621;BME280;31345;51.522;10.702;2024-03-25T03:23:16;97853.50;;;5.40;100.00
45621;BME280;31345;51.522;10.702;2024-03-25T03:25:48;97857.31;;;5.34;100.00
45621;BME280;31345;51.522;10.702;2024-03-25T03:28:21;97855.47;;;5.36;100.00
45621;BME280;31345;51.522;10.702;2024-03-25T03:30:53;97867.19;;;5.42;100.00
45621;BME280;31345;51.522;10.702;2024-03-25T03:33:26;97870.00;;;5.39;100.00
45621;BME280;31345;51.522;10.702;2024-03-25T03:35:52;97869.84;;;5.28;100.00
45621;BME280;31345;51.522;10.702;2024-03-25T03:38:27;97869.25;;;5.37;100.00
45621;BME280;31345;51.522;10.702;2024-03-25T03:40:59;97872.28;;;5.44;100.00
45621;BME280;31345;51.522;10.702;2024-03-25T03:43:32;97883.75;;;5.27;100.00
45621;BME280;31345;51.522;10.702;2024-03-25T03:46:05;97885.88;;;5.47;100.00
45621;BME280;31345;51.522;10.702;2024-03-25T03:48:38;97872.03;;;5.34;100.00
45621;BME280;31345;51.522;10.702;2024-03-25T03:51:09;97878.31;;;5.44;100.00
45621;BME280;31345;51.522;10.702;2024-03-25T03:53:37;97893.53;;;5.36;100.00
45621;BME280;31345;51.522;10.702;2024-03-25T03:56:09;97889.38;;;5.33;100.00
45621;BME280;31345;51.522;10.702;2024-03-25T03:58:41;97891.97;;;5.46;100.00
45621;BME280;31345;51.522;10.702;2024-03-25T04:01:15;97892.81;;;5.47;100.00
45621;BME280;31345;51.522;10.702;2024-03-25T04:03:48;97893.25;;;5.54;100.00
45621;BME280;31345;51.522;10.702;2024-03-25T04:06:15;97885.97;;;5.46;100.00
45621;BME280;31345;51.522;10.702;2024-03-25T04:08:43;97889.38;;;5.46;100.00
45621;BME280;31345;51.522;10.702;2024-03-25T04:11:10;97894.03;;;5.41;100.00
45621;BME280;31345;51.522;10.702;2024-03-25T04:13:37;97894.22;;;5.25;100.00
45621;BME280;31345;51.522;10.702;2024-03-25T04:16:09;97893.91;;;5.30;100.00
45621;BME280;31345;51.522;10.702;2024-03-25T04:18:38;97899.06;;;5.30;100.00
45621;BME280;31345;51.522;10.702;2024-03-25T04:21:11;97899.66;;;5.20;100.00
45621;BME280;31345;51.522;10.702;2024-03-25T04:23:45;97906.22;;;5.26;100.00
45621;BME280;31345;51.522;10.702;2024-03-25T04:26:11;97903.72;;;5.24;100.00
45621;BME280;31345;51.522;10.702;2024-03-25T04:28:44;97906.22;;;5.26;100.00
45621;BME280;31345;51.522;10.702;2024-03-25T04:31:16;97910.22;;;5.17;100.00
45621;BME280;31345;51.522;10.702;2024-03-25T04:33:50;97913.66;;;5.18;100.00
45621;BME280;31345;51.522;10.702;2024-03-25T04:36:16;97920.50;;;5.19;100.00
45621;BME280;31345;51.522;10.702;2024-03-25T04:38:49;97921.97;;;5.23;100.00
45621;BME280;31345;51.522;10.702;2024-03-25T04:41:16;97923.34;;;5.29;100.00
45621;BME280;31345;51.522;10.702;2024-03-25T04:43:47;97924.28;;;5.28;100.00
45621;BME280;31345;51.522;10.702;2024-03-25T04:46:19;97926.69;;;5.31;100.00
45621;BME280;31345;51.522;10.702;2024-03-25T04:48:52;97928.25;;;5.33;100.00
45621;BME280;31345;51.522;10.702;2024-03-25T04:51:18;97937.84;;;5.46;100.00
45621;BME280;31345;51.522;10.702;2024-03-25T04:53:50;97944.91;;;5.29;100.00
45621;BME280;31345;51.522;10.702;2024-03-25T04:56:16;97944.84;;;5.44;100.00
45621;BME280;31345;51.522;10.702;2024-03-25T04:58:48;97945.97;;;5.40;100.00
45621;BME280;31345;51.522;10.702;2024-03-25T05:01:19;97956.75;;;5.33;100.00
45621;BME280;31345;51.522;10.702;2024-03-25T05:03:53;97953.97;;;5.36;100.00
45621;BME280;31345;51.522;10.702;2024-03-25T05:06:19;97957.00;;;5.43;100.00
45621;BME280;31345;51.522;10.702;2024-03-25T05:08:51;97968.25;;;5.29;100.00
45621;BME280;31345;51.522;10.702;2024-03-25T05:11:23;97957.81;;;5.44;100.00
45621;BME280;31345;51.522;10.702;2024-03-25T05:13:54;97965.94;;;5.52;100.00
45621;BME280;31345;51.522;10.702;2024-03-25T05:16:26;97965.41;;;5.47;100.00
45621;BME280;31345;51.522;10.702;2024-03-25T05:18:59;97970.69;;;5.45;100.00
45621;BME280;31345;51.522;10.702;2024-03-25T05:21:31;97962.34;;;5.55;100.00
45621;BME280;31345;51.522;10.702;2024-03-25T05:23:57;97960.13;;;5.48;100.00
45621;BME280;31345;51.522;10.702;2024-03-25T05:26:24;97970.22;;;5.53;100.00
45621;BME280;31345;51.522;10.702;2024-03-25T05:28:54;97971.38;;;5.62;100.00
45621;BME280;31345;51.522;10.702;2024-03-25T05:31:21;97981.22;;;5.57;100.00
45621;BME280;31345;51.522;10.702;2024-03-25T05:33:52;97983.88;;;5.70;100.00
45621;BME280;31345;51.522;10.702;2024-03-25T05:36:20;97982.97;;;5.56;100.00
45621;BME280;31345;51.522;10.702;2024-03-25T05:38:47;97984.69;;;5.43;100.00
45621;BME280;31345;51.522;10.702;2024-03-25T05:41:18;97989.19;;;5.54;100.00
45621;BME280;31345;51.522;10.702;2024-03-25T05:43:50;97996.09;;;5.68;100.00
45621;BME280;31345;51.522;10.702;2024-03-25T05:46:22;98002.97;;;5.69;100.00
45621;BME280;31345;51.522;10.702;2024-03-25T05:48:53;98007.34;;;5.54;100.00
45621;BME280;31345;51.522;10.702;2024-03-25T05:51:26;98021.31;;;5.51;100.00
45621;BME280;31345;51.522;10.702;2024-03-25T05:53:57;98013.03;;;5.73;100.00
45621;BME280;31345;51.522;10.702;2024-03-25T05:56:29;98026.56;;;5.79;100.00
45621;BME280;31345;51.522;10.702;2024-03-25T05:59:01;98018.41;;;5.70;100.00
45621;BME280;31345;51.522;10.702;2024-03-25T06:01:33;98028.50;;;5.75;100.00
45621;BME280;31345;51.522;10.702;2024-03-25T06:04:05;98023.75;;;5.82;100.00
45621;BME280;31345;51.522;10.702;2024-03-25T06:06:38;98029.69;;;5.84;100.00
45621;BME280;31345;51.522;10.702;2024-03-25T06:09:10;98033.25;;;5.68;100.00
45621;BME280;31345;51.522;10.702;2024-03-25T06:11:41;98037.59;;;5.68;100.00
45621;BME280;31345;51.522;10.702;2024-03-25T06:14:13;98042.13;;;5.79;100.00
45621;BME280;31345;51.522;10.702;2024-03-25T06:16:40;98047.66;;;5.87;100.00
45621;BME280;31345;51.522;10.702;2024-03-25T06:19:11;98047.00;;;6.11;100.00
45621;BME280;31345;51.522;10.702;2024-03-25T06:21:45;98044.59;;;6.48;100.00
45621;BME280;31345;51.522;10.702;2024-03-25T06:24:12;98045.31;;;6.37;100.00
45621;BME280;31345;51.522;10.702;2024-03-25T06:26:43;98041.53;;;6.28;100.00
45621;BME280;31345;51.522;10.702;2024-03-25T06:29:15;98046.94;;;6.25;99.94
45621;BME280;31345;51.522;10.702;2024-03-25T06:31:46;98046.13;;;6.38;100.00
45621;BME280;31345;51.522;10.702;2024-03-25T06:34:36;98047.91;;;6.50;100.00
45621;BME280;31345;51.522;10.702;2024-03-25T06:37:09;98045.78;;;6.57;99.96
45621;BME280;31345;51.522;10.702;2024-03-25T06:39:41;98046.50;;;6.72;99.74
45621;BME280;31345;51.522;10.702;2024-03-25T06:42:13;98046.63;;;6.97;98.07
45621;BME280;31345;51.522;10.702;2024-03-25T06:44:39;98047.31;;;6.86;97.15
45621;BME280;31345;51.522;10.702;2024-03-25T06:47:11;98046.72;;;6.82;98.21
45621;BME280;31345;51.522;10.702;2024-03-25T06:49:42;98054.69;;;6.66;96.61
45621;BME280;31345;51.522;10.702;2024-03-25T06:52:10;98049.09;;;6.72;97.56
45621;BME280;31345;51.522;10.702;2024-03-25T06:54:37;98054.47;;;6.56;96.71
45621;BME280;31345;51.522;10.702;2024-03-25T06:57:04;98054.19;;;6.74;96.53
45621;BME280;31345;51.522;10.702;2024-03-25T06:59:35;98058.34;;;6.76;97.17
45621;BME280;31345;51.522;10.702;2024-03-25T07:02:07;98059.38;;;6.74;97.59
45621;BME280;31345;51.522;10.702;2024-03-25T07:04:39;98062.81;;;6.74;96.13
45621;BME280;31345;51.522;10.702;2024-03-25T07:07:05;98064.09;;;7.08;96.46
45621;BME280;31345;51.522;10.702;2024-03-25T07:09:39;98071.84;;;7.34;95.36
45621;BME280;31345;51.522;10.702;2024-03-25T07:12:06;98065.47;;;7.51;95.36
45621;BME280;31345;51.522;10.702;2024-03-25T07:14:38;98067.69;;;7.44;93.63
45621;BME280;31345;51.522;10.702;2024-03-25T07:17:10;98070.41;;;7.55;94.96
45621;BME280;31345;51.522;10.702;2024-03-25T07:19:41;98071.28;;;7.67;93.72
45621;BME280;31345;51.522;10.702;2024-03-25T07:22:13;98073.88;;;7.80;92.49
45621;BME280;31345;51.522;10.702;2024-03-25T07:24:46;98070.59;;;7.90;91.68
45621;BME280;31345;51.522;10.702;2024-03-25T07:27:13;98074.72;;;8.05;91.41
45621;BME280;31345;51.522;10.702;2024-03-25T07:29:44;98088.69;;;7.67;90.96
45621;BME280;31345;51.522;10.702;2024-03-25T07:32:16;98076.44;;;7.43;90.23
45621;BME280;31345;51.522;10.702;2024-03-25T07:34:47;98068.72;;;7.54;92.02
45621;BME280;31345;51.522;10.702;2024-03-25T07:37:19;98085.13;;;7.81;91.92
45621;BME280;31345;51.522;10.702;2024-03-25T07:39:52;98087.47;;;7.60;89.91
45621;BME280;31345;51.522;10.702;2024-03-25T07:42:19;98090.56;;;7.65;89.99
45621;BME280;31345;51.522;10.702;2024-03-25T07:44:50;98096.06;;;7.73;90.29
45621;BME280;31345;51.522;10.702;2024-03-25T07:47:22;98091.38;;;7.52;90.71
45621;BME280;31345;51.522;10.702;2024-03-25T07:49:53;98092.19;;;7.79;89.73
45621;BME280;31345;51.522;10.702;2024-03-25T07:52:25;98104.81;;;7.72;90.62
45621;BME280;31345;51.522;10.702;2024-03-25T07:54:58;98108.47;;;7.69;88.56
45621;BME280;31345;51.522;10.702;2024-03-25T07:57:29;98107.19;;;7.49;90.59
45621;BME280;31345;51.522;10.702;2024-03-25T08:00:01;98115.22;;;7.46;89.62
45621;BME280;31345;51.522;10.702;2024-03-25T08:02:43;98121.16;;;7.22;89.55
45621;BME280;31345;51.522;10.702;2024-03-25T08:05:15;98121.69;;;7.27;90.80
45621;BME280;31345;51.522;10.702;2024-03-25T08:07:46;98115.22;;;7.20;89.93
45621;BME280;31345;51.522;10.702;2024-03-25T08:10:20;98120.75;;;7.54;89.97
45621;BME280;31345;51.522;10.702;2024-03-25T08:12:51;98121.69;;;7.53;90.86
45621;BME280;31345;51.522;10.702;2024-03-25T08:15:23;98121.16;;;7.61;90.12
45621;BME280;31345;51.522;10.702;2024-03-25T08:17:54;98125.53;;;7.74;90.14
45621;BME280;31345;51.522;10.702;2024-03-25T08:20:26;98129.22;;;7.82;90.29
45621;BME280;31345;51.522;10.702;2024-03-25T08:22:57;98124.72;;;7.98;89.93
45621;BME280;31345;51.522;10.702;2024-03-25T08:25:25;98126.81;;;7.92;88.06
45621;BME280;31345;51.522;10.702;2024-03-25T08:27:57;98125.66;;;7.97;87.98
45621;BME280;31345;51.522;10.702;2024-03-25T08:30:28;98133.72;;;7.67;88.58
45621;BME280;31345;51.522;10.702;2024-03-25T08:32:55;98126.41;;;7.86;88.97
45621;BME280;31345;51.522;10.702;2024-03-25T08:35:26;98136.19;;;7.95;88.38
45621;BME280;31345;51.522;10.702;2024-03-25T08:37:58;98130.25;;;7.93;86.47
45621;BME280;31345;51.522;10.702;2024-03-25T08:40:27;98135.06;;;7.86;86.51
45621;BME280;31345;51.522;10.702;2024-03-25T08:42:58;98138.34;;;8.01;86.03
45621;BME280;31345;51.522;10.702;2024-03-25T08:45:30;98134.41;;;7.95;85.22
45621;BME280;31345;51.522;10.702;2024-03-25T08:48:01;98132.44;;;8.24;85.26
45621;BME280;31345;51.522;10.702;2024-03-25T08:50:33;98131.56;;;8.36;84.63
45621;BME280;31345;51.522;10.702;2024-03-25T08:53:04;98132.34;;;8.25;84.27
45621;BME280;31345;51.522;10.702;2024-03-25T08:55:37;98136.13;;;8.45;83.77
45621;BME280;31345;51.522;10.702;2024-03-25T08:58:09;98136.44;;;8.41;82.74
45621;BME280;31345;51.522;10.702;2024-03-25T09:00:41;98141.91;;;8.25;84.90
45621;BME280;31345;51.522;10.702;2024-03-25T09:03:12;98138.88;;;8.31;83.89
45621;BME280;31345;51.522;10.702;2024-03-25T09:05:44;98141.88;;;8.13;82.25
45621;BME280;31345;51.522;10.702;2024-03-25T09:08:15;98142.72;;;8.01;83.99
45621;BME280;31345;51.522;10.702;2024-03-25T09:10:48;98149.19;;;8.32;83.13
45621;BME280;31345;51.522;10.702;2024-03-25T09:13:35;98147.50;;;8.56;82.54
45621;BME280;31345;51.522;10.702;2024-03-25T09:16:02;98152.03;;;8.54;80.97
45621;BME280;31345;51.522;10.702;2024-03-25T09:18:33;98151.44;;;8.62;80.69
45621;BME280;31345;51.522;10.702;2024-03-25T09:21:05;98147.56;;;8.67;79.05
45621;BME280;31345;51.522;10.702;2024-03-25T09:23:38;98148.63;;;8.40;78.26
45621;BME280;31345;51.522;10.702;2024-03-25T09:26:11;98146.06;;;8.52;79.53
45621;BME280;31345;51.522;10.702;2024-03-25T09:28:42;98149.03;;;8.47;80.13
45621;BME280;31345;51.522;10.702;2024-03-25T09:31:14;98143.25;;;8.30;80.03
45621;BME280;31345;51.522;10.702;2024-03-25T09:33:45;98150.13;;;8.31;79.45
45621;BME280;31345;51.522;10.702;2024-03-25T09:36:17;98146.25;;;8.00;79.25
45621;BME280;31345;51.522;10.702;2024-03-25T09:38:49;98148.72;;;8.39;80.17
45621;BME280;31345;51.522;10.702;2024-03-25T09:41:22;98160.47;;;8.44;82.34
45621;BME280;31345;51.522;10.702;2024-03-25T09:43:54;98163.78;;;8.59;83.32
45621;BME280;31345;51.522;10.702;2024-03-25T09:46:26;98163.03;;;8.82;83.91
45621;BME280;31345;51.522;10.702;2024-03-25T09:48:58;98164.53;;;8.49;82.67
45621;BME280;31345;51.522;10.702;2024-03-25T09:51:29;98166.25;;;8.37;81.24
45621;BME280;31345;51.522;10.702;2024-03-25T09:54:01;98158.44;;;8.61;81.48
45621;BME280;31345;51.522;10.702;2024-03-25T09:56:34;98153.28;;;8.48;79.02
45621;BME280;31345;51.522;10.702;2024-03-25T09:59:06;98152.88;;;8.66;77.38
45621;BME280;31345;51.522;10.702;2024-03-25T10:01:38;98158.34;;;8.74;78.83
45621;BME280;31345;51.522;10.702;2024-03-25T10:04:10;98157.88;;;8.69;79.59
45621;BME280;31345;51.522;10.702;2024-03-25T10:06:41;98157.19;;;8.78;79.36
45621;BME280;31345;51.522;10.702;2024-03-25T10:09:08;98160.47;;;8.93;80.15
45621;BME280;31345;51.522;10.702;2024-03-25T10:11:41;98159.69;;;8.80;78.09
45621;BME280;31345;51.522;10.702;2024-03-25T10:14:12;98156.41;;;8.89;78.54
45621;BME280;31345;51.522;10.702;2024-03-25T10:16:44;98153.41;;;9.18;77.89
45621;BME280;31345;51.522;10.702;2024-03-25T10:19:16;98151.63;;;9.30;78.89
45621;BME280;31345;51.522;10.702;2024-03-25T10:21:47;98163.03;;;9.29;78.61
45621;BME280;31345;51.522;10.702;2024-03-25T10:24:19;98158.59;;;8.71;78.94
45621;BME280;31345;51.522;10.702;2024-03-25T10:26:52;98155.09;;;8.59;79.09
45621;BME280;31345;51.522;10.702;2024-03-25T10:29:25;98151.16;;;8.29;76.15
45621;BME280;31345;51.522;10.702;2024-03-25T10:31:59;98154.81;;;8.26;78.45
45621;BME280;31345;51.522;10.702;2024-03-25T10:34:31;98164.56;;;8.11;79.12
45621;BME280;31345;51.522;10.702;2024-03-25T10:37:04;98156.38;;;8.29;80.71
45621;BME280;31345;51.522;10.702;2024-03-25T10:39:31;98158.34;;;8.38;79.56
45621;BME280;31345;51.522;10.702;2024-03-25T10:42:06;98145.63;;;8.09;72.38
45621;BME280;31345;51.522;10.702;2024-03-25T10:44:38;98146.84;;;8.16;70.94
45621;BME280;31345;51.522;10.702;2024-03-25T10:47:15;98148.72;;;8.39;71.49
45621;BME280;31345;51.522;10.702;2024-03-25T10:49:48;98149.84;;;8.47;73.29
45621;BME280;31345;51.522;10.702;2024-03-25T10:52:21;98145.78;;;8.68;71.90
45621;BME280;31345;51.522;10.702;2024-03-25T10:54:54;98151.44;;;8.86;69.98
45621;BME280;31345;51.522;10.702;2024-03-25T10:57:28;98156.69;;;8.97;67.48
45621;BME280;31345;51.522;10.702;2024-03-25T11:00:01;98146.34;;;9.55;70.99
45621;BME280;31345;51.522;10.702;2024-03-25T11:02:34;98145.25;;;9.80;68.94
45621;BME280;31345;51.522;10.702;2024-03-25T11:05:06;98136.81;;;9.76;65.36
45621;BME280;31345;51.522;10.702;2024-03-25T11:07:34;98138.38;;;9.79;63.40
45621;BME280;31345;51.522;10.702;2024-03-25T11:10:06;98137.28;;;10.05;65.62
45621;BME280;31345;51.522;10.702;2024-03-25T11:12:40;98135.97;;;10.10;63.27
45621;BME280;31345;51.522;10.702;2024-03-25T11:15:12;98133.75;;;9.83;65.15
45621;BME280;31345;51.522;10.702;2024-03-25T11:17:48;98142.41;;;9.60;67.21
45621;BME280;31345;51.522;10.702;2024-03-25T11:20:19;98142.66;;;9.57;67.28
45621;BME280;31345;51.522;10.702;2024-03-25T11:22:52;98137.66;;;9.20;65.85
45621;BME280;31345;51.522;10.702;2024-03-25T11:25:24;98131.22;;;9.13;63.72
45621;BME280;31345;51.522;10.702;2024-03-25T11:27:57;98129.47;;;9.47;64.80
45621;BME280;31345;51.522;10.702;2024-03-25T11:30:29;98124.50;;;9.67;63.80
45621;BME280;31345;51.522;10.702;2024-03-25T11:33:02;98127.97;;;10.35;68.17
45621;BME280;31345;51.522;10.702;2024-03-25T11:35:36;98123.00;;;10.32;64.78
45621;BME280;31345;51.522;10.702;2024-03-25T11:38:08;98132.69;;;10.08;65.62
45621;BME280;31345;51.522;10.702;2024-03-25T11:40:42;98120.34;;;9.65;64.82
45621;BME280;31345;51.522;10.702;2024-03-25T11:43:21;98124.28;;;9.59;64.25
45621;BME280;31345;51.522;10.702;2024-03-25T11:45:53;98125.06;;;9.82;65.93
45621;BME280;31345;51.522;10.702;2024-03-25T11:48:25;98115.47;;;9.94;65.89
45621;BME280;31345;51.522;10.702;2024-03-25T11:50:57;98117.00;;;9.74;66.43
45621;BME280;31345;51.522;10.702;2024-03-25T11:53:29;98119.50;;;9.64;66.10
45621;BME280;31345;51.522;10.702;2024-03-25T11:56:01;98115.00;;;9.89;68.17
45621;BME280;31345;51.522;10.702;2024-03-25T11:58:34;98119.50;;;9.75;66.01
45621;BME280;31345;51.522;10.702;2024-03-25T12:01:06;98110.25;;;9.94;67.75
45621;BME280;31345;51.522;10.702;2024-03-25T12:03:37;98107.06;;;9.56;63.09
45621;BME280;31345;51.522;10.702;2024-03-25T12:06:09;98103.72;;;9.66;63.71
45621;BME280;31345;51.522;10.702;2024-03-25T12:08:40;98112.63;;;9.97;63.16
45621;BME280;31345;51.522;10.702;2024-03-25T12:11:12;98108.56;;;10.49;63.14
45621;BME280;31345;51.522;10.702;2024-03-25T12:13:52;98103.91;;;10.52;61.87
45621;BME280;31345;51.522;10.702;2024-03-25T12:16:24;98114.03;;;10.46;64.33
45621;BME280;31345;51.522;10.702;2024-03-25T12:18:55;98115.31;;;10.51;63.94
45621;BME280;31345;51.522;10.702;2024-03-25T12:21:22;98103.28;;;10.60;60.06
45621;BME280;31345;51.522;10.702;2024-03-25T12:23:49;98102.78;;;10.66;59.96
45621;BME280;31345;51.522;10.702;2024-03-25T12:26:20;98101.44;;;10.72;58.41
45621;BME280;31345;51.522;10.702;2024-03-25T12:28:53;98102.06;;;11.07;58.22
45621;BME280;31345;51.522;10.702;2024-03-25T12:31:25;98102.41;;;10.71;57.38
45621;BME280;31345;51.522;10.702;2024-03-25T12:33:56;98104.38;;;10.79;58.56
45621;BME280;31345;51.522;10.702;2024-03-25T12:36:28;98106.66;;;10.51;57.80
45621;BME280;31345;51.522;10.702;2024-03-25T12:38:55;98100.81;;;10.59;60.26
45621;BME280;31345;51.522;10.702;2024-03-25T12:41:27;98101.66;;;10.26;59.23
45621;BME280;31345;51.522;10.702;2024-03-25T12:44:00;98104.81;;;10.30;58.35
45621;BME280;31345;51.522;10.702;2024-03-25T12:46:31;98100.31;;;10.32;56.49
45621;BME280;31345;51.522;10.702;2024-03-25T12:49:03;98105.25;;;10.68;60.39
45621;BME280;31345;51.522;10.702;2024-03-25T12:51:35;98093.03;;;10.69;59.06
45621;BME280;31345;51.522;10.702;2024-03-25T12:54:07;98102.28;;;10.73;58.86
45621;BME280;31345;51.522;10.702;2024-03-25T12:56:41;98093.66;;;10.82;58.81
45621;BME280;31345;51.522;10.702;2024-03-25T12:59:14;98089.97;;;10.85;60.06
45621;BME280;31345;51.522;10.702;2024-03-25T13:01:46;98095.13;;;11.17;62.18
45621;BME280;31345;51.522;10.702;2024-03-25T13:04:17;98091.53;;;11.50;60.20
45621;BME280;31345;51.522;10.702;2024-03-25T13:06:49;98077.34;;;11.52;56.48
45621;BME280;31345;51.522;10.702;2024-03-25T13:09:21;98077.06;;;11.46;55.11
45621;BME280;31345;51.522;10.702;2024-03-25T13:11:52;98078.81;;;11.35;56.57
45621;BME280;31345;51.522;10.702;2024-03-25T13:14:25;98069.16;;;11.04;56.87
45621;BME280;31345;51.522;10.702;2024-03-25T13:16:57;98069.44;;;11.01;58.34